sensor_id;sensor_type;location;lat;lon;timestamp;temperature;humidity
74294;DHT22;62688;59.904;10.738;2022-08-19T00:01:17;21.40;76.00
74294;DHT22;62688;59.904;10.738;2022-08-19T00:03:42;21.40;76.00
74294;DHT22;62688;59.904;10.738;2022-08-19T00:06:08;21.40;75.90
74294;DHT22;62688;59.904;10.738;2022-08-19T00:08:35;21.40;76.00
74294;DHT22;62688;59.904;10.738;2022-08-19T00:11:01;21.30;76.00
74294;DHT22;62688;59.904;10.738;2022-08-19T00:13:26;21.40;76.20
74294;DHT22;62688;59.904;10.738;2022-08-19T00:15:54;21.30;76.20
74294;DHT22;62688;59.904;10.738;2022-08-19T00:18:20;21.30;76.50
74294;DHT22;62688;59.904;10.738;2022-08-19T00:20:45;21.30;76.50
74294;DHT22;62688;59.904;10.738;2022-08-19T00:23:11;21.20;76.60
74294;DHT22;62688;59.904;10.738;2022-08-19T00:25:37;21.20;76.70
74294;DHT22;62688;59.904;10.738;2022-08-19T00:28:03;21.20;76.80
74294;DHT22;62688;59.904;10.738;2022-08-19T00:30:29;21.20;77.00
74294;DHT22;62688;59.904;10.738;2022-08-19T00:32:55;21.20;77.10
74294;DHT22;62688;59.904;10.738;2022-08-19T00:35:21;21.20;77.10
74294;DHT22;62688;59.904;10.738;2022-08-19T00:37:49;21.20;77.20
74294;DHT22;62688;59.904;10.738;2022-08-19T00:40:15;21.10;77.20
74294;DHT22;62688;59.904;10.738;2022-08-19T00:42:41;21.10;77.20
74294;DHT22;62688;59.904;10.738;2022-08-19T00:45:17;21.10;77.20
74294;DHT22;62688;59.904;10.738;2022-08-19T00:47:45;21.10;77.60
74294;DHT22;62688;59.904;10.738;2022-08-19T00:50:13;21.20;77.50
74294;DHT22;62688;59.904;10.738;2022-08-19T00:52:42;21.10;77.60
74294;DHT22;62688;59.904;10.738;2022-08-19T00:55:17;21.20;77.50
74294;DHT22;62688;59.904;10.738;2022-08-19T00:57:48;21.10;77.50
74294;DHT22;62688;59.904;10.738;2022-08-19T01:00:18;21.10;77.40
74294;DHT22;62688;59.904;10.738;2022-08-19T01:02:44;21.20;77.30
74294;DHT22;62688;59.904;10.738;2022-08-19T01:05:25;21.20;77.10
74294;DHT22;62688;59.904;10.738;2022-08-19T01:07:53;21.20;77.10
74294;DHT22;62688;59.904;10.738;2022-08-19T01:10:23;21.20;76.90
74294;DHT22;62688;59.904;10.738;2022-08-19T01:12:50;21.20;76.90
74294;DHT22;62688;59.904;10.738;2022-08-19T01:15:19;21.20;77.00
74294;DHT22;62688;59.904;10.738;2022-08-19T01:17:47;21.20;77.00
74294;DHT22;62688;59.904;10.738;2022-08-19T01:20:17;21.20;76.90
74294;DHT22;62688;59.904;10.738;2022-08-19T01:22:48;21.20;77.00
74294;DHT22;62688;59.904;10.738;2022-08-19T01:25:16;21.20;76.80
74294;DHT22;62688;59.904;10.738;2022-08-19T01:27:45;21.20;76.50
74294;DHT22;62688;59.904;10.738;2022-08-19T01:30:16;21.20;76.30
74294;DHT22;62688;59.904;10.738;2022-08-19T01:32:42;21.20;76.10
74294;DHT22;62688;59.904;10.738;2022-08-19T01:35:11;21.10;75.90
74294;DHT22;62688;59.904;10.738;2022-08-19T01:37:53;21.10;75.90
74294;DHT22;62688;59.904;10.738;2022-08-19T01:40:21;21.10;76.10
74294;DHT22;62688;59.904;10.738;2022-08-19T01:42:48;21.00;76.00
74294;DHT22;62688;59.904;10.738;2022-08-19T01:45:14;21.00;76.20
74294;DHT22;62688;59.904;10.738;2022-08-19T01:47:40;21.00;76.20
74294;DHT22;62688;59.904;10.738;2022-08-19T01:50:08;21.00;76.20
74294;DHT22;62688;59.904;10.738;2022-08-19T01:52:36;21.00;76.20
74294;DHT22;62688;59.904;10.738;2022-08-19T01:55:02;21.00;76.20
74294;DHT22;62688;59.904;10.738;2022-08-19T01:57:27;21.00;76.20
74294;DHT22;62688;59.904;10.738;2022-08-19T01:59:53;21.00;76.20
74294;DHT22;62688;59.904;10.738;2022-08-19T02:02:19;21.00;76.20
74294;DHT22;62688;59.904;10.738;2022-08-19T02:04:44;21.00;76.30
74294;DHT22;62688;59.904;10.738;2022-08-19T02:07:11;21.00;76.30
74294;DHT22;62688;59.904;10.738;2022-08-19T02:09:37;21.00;76.30
74294;DHT22;62688;59.904;10.738;2022-08-19T02:12:04;21.00;76.40
74294;DHT22;62688;59.904;10.738;2022-08-19T02:14:30;21.00;76.50
74294;DHT22;62688;59.904;10.738;2022-08-19T02:16:56;21.00;76.50
74294;DHT22;62688;59.904;10.738;2022-08-19T02:19:21;21.00;76.50
74294;DHT22;62688;59.904;10.738;2022-08-19T02:21:47;21.00;76.50
74294;DHT22;62688;59.904;10.738;2022-08-19T02:24:13;21.00;76.50
74294;DHT22;62688;59.904;10.738;2022-08-19T02:26:39;21.00;76.50
74294;DHT22;62688;59.904;10.738;2022-08-19T02:29:04;21.10;76.60
74294;DHT22;62688;59.904;10.738;2022-08-19T02:31:30;21.10;76.60
74294;DHT22;62688;59.904;10.738;2022-08-19T02:33:56;21.10;76.70
74294;DHT22;62688;59.904;10.738;2022-08-19T02:36:24;21.10;76.80
74294;DHT22;62688;59.904;10.738;2022-08-19T02:38:50;21.10;77.50
74294;DHT22;62688;59.904;10.738;2022-08-19T02:41:19;21.10;76.60
74294;DHT22;62688;59.904;10.738;2022-08-19T02:43:45;21.10;76.50
74294;DHT22;62688;59.904;10.738;2022-08-19T02:46:23;21.10;76.50
74294;DHT22;62688;59.904;10.738;2022-08-19T02:48:50;21.10;76.80
74294;DHT22;62688;59.904;10.738;2022-08-19T02:51:20;21.10;76.60
74294;DHT22;62688;59.904;10.738;2022-08-19T02:53:46;21.10;76.70
74294;DHT22;62688;59.904;10.738;2022-08-19T02:56:12;21.10;76.70
74294;DHT22;62688;59.904;10.738;2022-08-19T02:58:38;21.10;76.60
74294;DHT22;62688;59.904;10.738;2022-08-19T03:01:03;21.00;76.60
74294;DHT22;62688;59.904;10.738;2022-08-19T03:03:29;21.10;76.90
74294;DHT22;62688;59.904;10.738;2022-08-19T03:06:10;21.00;76.40
74294;DHT22;62688;59.904;10.738;2022-08-19T03:08:38;21.00;76.40
74294;DHT22;62688;59.904;10.738;2022-08-19T03:11:03;21.00;76.20
74294;DHT22;62688;59.904;10.738;2022-08-19T03:13:29;21.00;76.30
74294;DHT22;62688;59.904;10.738;2022-08-19T03:15:55;21.00;76.20
74294;DHT22;62688;59.904;10.738;2022-08-19T03:18:21;21.00;76.20
74294;DHT22;62688;59.904;10.738;2022-08-19T03:20:51;21.00;76.20
74294;DHT22;62688;59.904;10.738;2022-08-19T03:23:19;20.90;76.10
74294;DHT22;62688;59.904;10.738;2022-08-19T03:25:46;20.90;75.80
74294;DHT22;62688;59.904;10.738;2022-08-19T03:28:14;20.90;75.80
74294;DHT22;62688;59.904;10.738;2022-08-19T03:30:41;20.80;75.70
74294;DHT22;62688;59.904;10.738;2022-08-19T03:33:10;20.90;75.90
74294;DHT22;62688;59.904;10.738;2022-08-19T03:35:37;20.80;76.00
74294;DHT22;62688;59.904;10.738;2022-08-19T03:38:06;20.80;76.00
74294;DHT22;62688;59.904;10.738;2022-08-19T03:40:32;20.80;76.20
74294;DHT22;62688;59.904;10.738;2022-08-19T03:43:00;20.80;76.30
74294;DHT22;62688;59.904;10.738;2022-08-19T03:45:26;20.70;76.20
74294;DHT22;62688;59.904;10.738;2022-08-19T03:47:53;20.70;76.30
74294;DHT22;62688;59.904;10.738;2022-08-19T03:50:19;20.70;76.30
74294;DHT22;62688;59.904;10.738;2022-08-19T03:52:49;20.70;76.20
74294;DHT22;62688;59.904;10.738;2022-08-19T03:55:16;20.70;76.20
74294;DHT22;62688;59.904;10.738;2022-08-19T03:57:41;20.70;75.80
74294;DHT22;62688;59.904;10.738;2022-08-19T04:00:08;20.70;75.80
74294;DHT22;62688;59.904;10.738;2022-08-19T04:02:34;20.70;75.60
74294;DHT22;62688;59.904;10.738;2022-08-19T04:05:00;20.70;75.50
74294;DHT22;62688;59.904;10.738;2022-08-19T04:07:26;20.60;76.00
74294;DHT22;62688;59.904;10.738;2022-08-19T04:09:51;20.60;75.30
74294;DHT22;62688;59.904;10.738;2022-08-19T04:12:18;20.60;75.20
74294;DHT22;62688;59.904;10.738;2022-08-19T04:14:45;20.50;75.10
74294;DHT22;62688;59.904;10.738;2022-08-19T04:17:11;20.60;75.20
74294;DHT22;62688;59.904;10.738;2022-08-19T04:19:38;20.50;75.10
74294;DHT22;62688;59.904;10.738;2022-08-19T04:22:04;20.50;75.10
74294;DHT22;62688;59.904;10.738;2022-08-19T04:24:30;20.50;75.20
74294;DHT22;62688;59.904;10.738;2022-08-19T04:26:56;20.50;75.10
74294;DHT22;62688;59.904;10.738;2022-08-19T04:29:23;20.50;75.10
74294;DHT22;62688;59.904;10.738;2022-08-19T04:31:51;20.50;75.10
74294;DHT22;62688;59.904;10.738;2022-08-19T04:34:20;20.40;75.00
74294;DHT22;62688;59.904;10.738;2022-08-19T04:36:50;20.50;74.80
74294;DHT22;62688;59.904;10.738;2022-08-19T04:39:19;20.40;74.70
74294;DHT22;62688;59.904;10.738;2022-08-19T04:41:46;20.40;74.90
74294;DHT22;62688;59.904;10.738;2022-08-19T04:44:31;20.30;75.00
74294;DHT22;62688;59.904;10.738;2022-08-19T04:46:58;20.30;75.00
74294;DHT22;62688;59.904;10.738;2022-08-19T04:49:23;20.30;75.10
74294;DHT22;62688;59.904;10.738;2022-08-19T04:51:50;20.20;75.10
74294;DHT22;62688;59.904;10.738;2022-08-19T04:54:19;20.20;75.30
74294;DHT22;62688;59.904;10.738;2022-08-19T04:56:49;20.20;75.40
74294;DHT22;62688;59.904;10.738;2022-08-19T04:59:16;20.10;75.50
74294;DHT22;62688;59.904;10.738;2022-08-19T05:01:42;20.10;75.60
74294;DHT22;62688;59.904;10.738;2022-08-19T05:04:08;20.10;75.70
74294;DHT22;62688;59.904;10.738;2022-08-19T05:06:35;20.10;75.70
74294;DHT22;62688;59.904;10.738;2022-08-19T05:09:04;20.10;76.00
74294;DHT22;62688;59.904;10.738;2022-08-19T05:11:33;20.10;76.00
74294;DHT22;62688;59.904;10.738;2022-08-19T05:13:59;20.10;76.10
74294;DHT22;62688;59.904;10.738;2022-08-19T05:16:27;20.10;76.20
74294;DHT22;62688;59.904;10.738;2022-08-19T05:18:53;20.10;76.30
74294;DHT22;62688;59.904;10.738;2022-08-19T05:21:40;20.10;76.50
74294;DHT22;62688;59.904;10.738;2022-08-19T05:24:26;20.20;76.40
74294;DHT22;62688;59.904;10.738;2022-08-19T05:26:53;20.20;76.00
74294;DHT22;62688;59.904;10.738;2022-08-19T05:29:22;20.30;75.70
74294;DHT22;62688;59.904;10.738;2022-08-19T05:31:49;20.30;75.70
74294;DHT22;62688;59.904;10.738;2022-08-19T05:34:16;20.30;75.60
74294;DHT22;62688;59.904;10.738;2022-08-19T05:36:43;20.30;75.50
74294;DHT22;62688;59.904;10.738;2022-08-19T05:39:13;20.40;75.30
74294;DHT22;62688;59.904;10.738;2022-08-19T05:41:43;20.40;75.20
74294;DHT22;62688;59.904;10.738;2022-08-19T05:44:09;20.40;75.00
74294;DHT22;62688;59.904;10.738;2022-08-19T05:46:36;20.40;75.20
74294;DHT22;62688;59.904;10.738;2022-08-19T05:49:03;20.40;75.20
74294;DHT22;62688;59.904;10.738;2022-08-19T05:51:30;20.50;75.20
74294;DHT22;62688;59.904;10.738;2022-08-19T05:53:55;20.50;74.90
74294;DHT22;62688;59.904;10.738;2022-08-19T05:56:21;20.50;74.80
74294;DHT22;62688;59.904;10.738;2022-08-19T05:58:47;20.60;74.80
74294;DHT22;62688;59.904;10.738;2022-08-19T06:01:15;20.60;74.70
74294;DHT22;62688;59.904;10.738;2022-08-19T06:03:41;20.70;74.70
74294;DHT22;62688;59.904;10.738;2022-08-19T06:06:08;20.70;74.60
74294;DHT22;62688;59.904;10.738;2022-08-19T06:08:35;20.80;74.70
74294;DHT22;62688;59.904;10.738;2022-08-19T06:13:40;20.90;74.10
74294;DHT22;62688;59.904;10.738;2022-08-19T06:16:05;21.00;74.40
74294;DHT22;62688;59.904;10.738;2022-08-19T06:18:31;21.00;73.90
74294;DHT22;62688;59.904;10.738;2022-08-19T06:20:58;21.10;73.60
74294;DHT22;62688;59.904;10.738;2022-08-19T06:23:24;21.10;73.20
74294;DHT22;62688;59.904;10.738;2022-08-19T06:25:50;21.20;72.60
74294;DHT22;62688;59.904;10.738;2022-08-19T06:28:16;21.20;72.40
74294;DHT22;62688;59.904;10.738;2022-08-19T06:30:42;21.20;72.00
74294;DHT22;62688;59.904;10.738;2022-08-19T06:33:08;21.20;71.70
74294;DHT22;62688;59.904;10.738;2022-08-19T06:35:39;21.20;71.70
74294;DHT22;62688;59.904;10.738;2022-08-19T06:38:04;21.20;71.70
74294;DHT22;62688;59.904;10.738;2022-08-19T06:40:30;21.20;71.80
74294;DHT22;62688;59.904;10.738;2022-08-19T06:42:56;21.20;71.70
74294;DHT22;62688;59.904;10.738;2022-08-19T06:45:24;21.20;71.60
74294;DHT22;62688;59.904;10.738;2022-08-19T06:47:49;21.20;72.30
74294;DHT22;62688;59.904;10.738;2022-08-19T06:50:23;21.20;71.50
74294;DHT22;62688;59.904;10.738;2022-08-19T06:52:48;21.30;71.40
74294;DHT22;62688;59.904;10.738;2022-08-19T06:55:14;21.30;71.30
74294;DHT22;62688;59.904;10.738;2022-08-19T06:57:41;21.30;71.30
74294;DHT22;62688;59.904;10.738;2022-08-19T07:00:08;21.30;70.80
74294;DHT22;62688;59.904;10.738;2022-08-19T07:02:41;21.40;70.20
74294;DHT22;62688;59.904;10.738;2022-08-19T07:05:07;21.50;69.70
74294;DHT22;62688;59.904;10.738;2022-08-19T07:07:33;21.50;69.30
74294;DHT22;62688;59.904;10.738;2022-08-19T07:10:00;21.50;69.10
74294;DHT22;62688;59.904;10.738;2022-08-19T07:12:30;21.60;69.50
74294;DHT22;62688;59.904;10.738;2022-08-19T07:14:59;21.60;69.20
74294;DHT22;62688;59.904;10.738;2022-08-19T07:17:26;21.70;68.90
74294;DHT22;62688;59.904;10.738;2022-08-19T07:19:52;21.70;68.60
74294;DHT22;62688;59.904;10.738;2022-08-19T07:22:17;21.70;68.30
74294;DHT22;62688;59.904;10.738;2022-08-19T07:24:45;21.80;68.10
74294;DHT22;62688;59.904;10.738;2022-08-19T07:27:13;21.80;67.70
74294;DHT22;62688;59.904;10.738;2022-08-19T07:29:39;21.80;67.30
74294;DHT22;62688;59.904;10.738;2022-08-19T07:32:05;21.90;67.60
74294;DHT22;62688;59.904;10.738;2022-08-19T07:34:32;21.80;67.30
74294;DHT22;62688;59.904;10.738;2022-08-19T07:37:03;21.90;67.50
74294;DHT22;62688;59.904;10.738;2022-08-19T07:39:31;21.90;67.10
74294;DHT22;62688;59.904;10.738;2022-08-19T07:41:59;22.00;67.20
74294;DHT22;62688;59.904;10.738;2022-08-19T07:44:25;22.00;67.00
74294;DHT22;62688;59.904;10.738;2022-08-19T07:46:54;22.10;66.90
74294;DHT22;62688;59.904;10.738;2022-08-19T07:49:21;22.20;66.50
74294;DHT22;62688;59.904;10.738;2022-08-19T07:51:50;22.30;66.40
74294;DHT22;62688;59.904;10.738;2022-08-19T07:54:18;22.30;66.00
74294;DHT22;62688;59.904;10.738;2022-08-19T07:56:45;22.40;65.70
74294;DHT22;62688;59.904;10.738;2022-08-19T07:59:11;22.40;65.50
74294;DHT22;62688;59.904;10.738;2022-08-19T08:01:37;22.50;65.40
74294;DHT22;62688;59.904;10.738;2022-08-19T08:04:05;22.50;65.00
74294;DHT22;62688;59.904;10.738;2022-08-19T08:06:49;22.60;64.70
74294;DHT22;62688;59.904;10.738;2022-08-19T08:09:37;22.60;64.70
74294;DHT22;62688;59.904;10.738;2022-08-19T08:12:08;22.70;64.30
74294;DHT22;62688;59.904;10.738;2022-08-19T08:14:39;22.70;64.10
74294;DHT22;62688;59.904;10.738;2022-08-19T08:17:06;22.80;64.00
74294;DHT22;62688;59.904;10.738;2022-08-19T08:19:32;22.80;64.10
74294;DHT22;62688;59.904;10.738;2022-08-19T08:22:00;22.90;63.90
74294;DHT22;62688;59.904;10.738;2022-08-19T08:24:30;23.00;63.80
74294;DHT22;62688;59.904;10.738;2022-08-19T08:26:58;23.00;63.00
74294;DHT22;62688;59.904;10.738;2022-08-19T08:29:25;23.10;63.50
74294;DHT22;62688;59.904;10.738;2022-08-19T08:31:52;23.20;63.40
74294;DHT22;62688;59.904;10.738;2022-08-19T08:34:19;23.20;63.00
74294;DHT22;62688;59.904;10.738;2022-08-19T08:36:46;23.30;62.70
74294;DHT22;62688;59.904;10.738;2022-08-19T08:39:14;23.30;62.40
74294;DHT22;62688;59.904;10.738;2022-08-19T08:44:57;23.30;61.00
74294;DHT22;62688;59.904;10.738;2022-08-19T08:47:25;23.40;60.80
74294;DHT22;62688;59.904;10.738;2022-08-19T08:49:59;23.40;61.80
74294;DHT22;62688;59.904;10.738;2022-08-19T08:52:29;23.40;60.90
74294;DHT22;62688;59.904;10.738;2022-08-19T08:54:57;23.40;61.00
74294;DHT22;62688;59.904;10.738;2022-08-19T08:57:33;23.40;60.90
74294;DHT22;62688;59.904;10.738;2022-08-19T09:00:02;23.40;60.70
74294;DHT22;62688;59.904;10.738;2022-08-19T09:02:31;23.50;60.80
74294;DHT22;62688;59.904;10.738;2022-08-19T09:04:56;23.50;60.90
74294;DHT22;62688;59.904;10.738;2022-08-19T09:07:50;23.50;60.60
74294;DHT22;62688;59.904;10.738;2022-08-19T09:10:20;23.50;59.80
74294;DHT22;62688;59.904;10.738;2022-08-19T09:12:51;23.50;60.70
74294;DHT22;62688;59.904;10.738;2022-08-19T09:15:25;23.60;60.80
74294;DHT22;62688;59.904;10.738;2022-08-19T09:17:53;23.60;60.10
74294;DHT22;62688;59.904;10.738;2022-08-19T09:20:22;23.60;60.40
74294;DHT22;62688;59.904;10.738;2022-08-19T09:22:48;23.70;60.00
74294;DHT22;62688;59.904;10.738;2022-08-19T09:25:18;23.70;59.80
74294;DHT22;62688;59.904;10.738;2022-08-19T09:27:45;23.80;59.60
74294;DHT22;62688;59.904;10.738;2022-08-19T09:30:26;23.80;59.80
74294;DHT22;62688;59.904;10.738;2022-08-19T09:32:53;23.80;59.00
74294;DHT22;62688;59.904;10.738;2022-08-19T09:35:25;23.90;59.50
74294;DHT22;62688;59.904;10.738;2022-08-19T09:37:51;24.00;59.30
74294;DHT22;62688;59.904;10.738;2022-08-19T09:40:18;24.00;59.20
74294;DHT22;62688;59.904;10.738;2022-08-19T09:42:44;24.00;59.00
74294;DHT22;62688;59.904;10.738;2022-08-19T09:45:13;24.10;59.00
74294;DHT22;62688;59.904;10.738;2022-08-19T09:47:39;24.10;59.00
74294;DHT22;62688;59.904;10.738;2022-08-19T09:50:06;24.10;58.80
74294;DHT22;62688;59.904;10.738;2022-08-19T09:52:32;24.20;58.60
74294;DHT22;62688;59.904;10.738;2022-08-19T09:54:59;24.20;58.60
74294;DHT22;62688;59.904;10.738;2022-08-19T09:57:25;24.30;58.40
74294;DHT22;62688;59.904;10.738;2022-08-19T09:59:50;24.30;58.10
74294;DHT22;62688;59.904;10.738;2022-08-19T10:02:16;24.30;58.00
74294;DHT22;62688;59.904;10.738;2022-08-19T10:04:42;24.30;57.90
74294;DHT22;62688;59.904;10.738;2022-08-19T10:07:29;24.30;57.70
74294;DHT22;62688;59.904;10.738;2022-08-19T10:09:55;24.30;57.60
74294;DHT22;62688;59.904;10.738;2022-08-19T10:12:21;24.40;57.70
74294;DHT22;62688;59.904;10.738;2022-08-19T10:14:47;24.40;57.80
74294;DHT22;62688;59.904;10.738;2022-08-19T10:17:13;24.50;57.80
74294;DHT22;62688;59.904;10.738;2022-08-19T10:19:39;24.60;58.00
74294;DHT22;62688;59.904;10.738;2022-08-19T10:22:06;24.60;57.80
74294;DHT22;62688;59.904;10.738;2022-08-19T10:24:33;24.70;57.70
74294;DHT22;62688;59.904;10.738;2022-08-19T10:27:00;24.80;57.40
74294;DHT22;62688;59.904;10.738;2022-08-19T10:29:29;25.00;57.10
74294;DHT22;62688;59.904;10.738;2022-08-19T10:31:54;25.10;56.90
74294;DHT22;62688;59.904;10.738;2022-08-19T10:34:21;25.20;56.40
74294;DHT22;62688;59.904;10.738;2022-08-19T10:36:46;25.30;56.40
74294;DHT22;62688;59.904;10.738;2022-08-19T10:39:13;25.40;56.50
74294;DHT22;62688;59.904;10.738;2022-08-19T10:41:39;25.50;56.60
74294;DHT22;62688;59.904;10.738;2022-08-19T10:44:07;25.60;56.70
74294;DHT22;62688;59.904;10.738;2022-08-19T10:46:36;25.70;56.30
74294;DHT22;62688;59.904;10.738;2022-08-19T10:49:04;25.80;56.00
74294;DHT22;62688;59.904;10.738;2022-08-19T10:51:30;25.90;56.00
74294;DHT22;62688;59.904;10.738;2022-08-19T10:54:15;25.90;55.80
74294;DHT22;62688;59.904;10.738;2022-08-19T10:56:41;26.00;55.50
74294;DHT22;62688;59.904;10.738;2022-08-19T10:59:22;26.10;55.30
74294;DHT22;62688;59.904;10.738;2022-08-19T11:01:50;26.20;54.70
74294;DHT22;62688;59.904;10.738;2022-08-19T11:04:17;26.20;54.50
74294;DHT22;62688;59.904;10.738;2022-08-19T11:06:45;26.20;54.00
74294;DHT22;62688;59.904;10.738;2022-08-19T11:09:14;26.20;54.40
74294;DHT22;62688;59.904;10.738;2022-08-19T11:11:41;26.20;54.50
74294;DHT22;62688;59.904;10.738;2022-08-19T11:14:08;26.20;54.20
74294;DHT22;62688;59.904;10.738;2022-08-19T11:16:34;26.10;53.70
74294;DHT22;62688;59.904;10.738;2022-08-19T11:19:00;26.10;54.00
74294;DHT22;62688;59.904;10.738;2022-08-19T11:21:31;26.10;53.80
74294;DHT22;62688;59.904;10.738;2022-08-19T11:24:00;26.20;51.50
74294;DHT22;62688;59.904;10.738;2022-08-19T11:26:27;26.20;51.00
74294;DHT22;62688;59.904;10.738;2022-08-19T11:28:54;26.20;51.00
74294;DHT22;62688;59.904;10.738;2022-08-19T11:31:25;26.20;51.00
74294;DHT22;62688;59.904;10.738;2022-08-19T11:33:51;26.30;51.30
74294;DHT22;62688;59.904;10.738;2022-08-19T11:36:19;26.30;51.70
74294;DHT22;62688;59.904;10.738;2022-08-19T11:38:47;26.40;51.20
74294;DHT22;62688;59.904;10.738;2022-08-19T11:41:14;26.40;50.50
74294;DHT22;62688;59.904;10.738;2022-08-19T11:43:40;26.50;50.40
74294;DHT22;62688;59.904;10.738;2022-08-19T11:46:13;26.50;49.40
74294;DHT22;62688;59.904;10.738;2022-08-19T11:48:39;26.60;48.10
74294;DHT22;62688;59.904;10.738;2022-08-19T11:51:10;26.60;48.30
74294;DHT22;62688;59.904;10.738;2022-08-19T11:53:38;26.70;46.80
74294;DHT22;62688;59.904;10.738;2022-08-19T11:56:04;26.80;46.80
74294;DHT22;62688;59.904;10.738;2022-08-19T11:58:31;26.90;47.40
74294;DHT22;62688;59.904;10.738;2022-08-19T12:00:57;26.90;46.20
74294;DHT22;62688;59.904;10.738;2022-08-19T12:03:23;27.10;46.20
74294;DHT22;62688;59.904;10.738;2022-08-19T12:05:49;27.10;46.10
74294;DHT22;62688;59.904;10.738;2022-08-19T12:08:15;27.30;45.90
74294;DHT22;62688;59.904;10.738;2022-08-19T12:10:42;27.30;45.90
74294;DHT22;62688;59.904;10.738;2022-08-19T12:13:09;27.40;45.70
74294;DHT22;62688;59.904;10.738;2022-08-19T12:15:39;27.50;45.90
74294;DHT22;62688;59.904;10.738;2022-08-19T12:18:08;27.50;44.50
74294;DHT22;62688;59.904;10.738;2022-08-19T12:20:38;27.60;44.80
74294;DHT22;62688;59.904;10.738;2022-08-19T12:23:05;27.60;43.80
74294;DHT22;62688;59.904;10.738;2022-08-19T12:25:30;27.80;41.80
74294;DHT22;62688;59.904;10.738;2022-08-19T12:27:57;27.80;44.50
74294;DHT22;62688;59.904;10.738;2022-08-19T12:30:23;27.80;44.40
74294;DHT22;62688;59.904;10.738;2022-08-19T12:32:49;27.80;44.40
74294;DHT22;62688;59.904;10.738;2022-08-19T12:35:16;27.90;44.60
74294;DHT22;62688;59.904;10.738;2022-08-19T12:37:42;28.10;44.70
74294;DHT22;62688;59.904;10.738;2022-08-19T12:40:10;28.10;44.10
74294;DHT22;62688;59.904;10.738;2022-08-19T12:42:38;28.30;43.90
74294;DHT22;62688;59.904;10.738;2022-08-19T12:45:07;28.40;44.40
74294;DHT22;62688;59.904;10.738;2022-08-19T12:47:33;28.60;44.00
74294;DHT22;62688;59.904;10.738;2022-08-19T12:49:58;28.70;43.80
74294;DHT22;62688;59.904;10.738;2022-08-19T12:52:25;28.80;43.20
74294;DHT22;62688;59.904;10.738;2022-08-19T12:54:54;28.90;41.60
74294;DHT22;62688;59.904;10.738;2022-08-19T12:57:20;29.00;42.60
74294;DHT22;62688;59.904;10.738;2022-08-19T12:59:46;29.10;42.30
74294;DHT22;62688;59.904;10.738;2022-08-19T13:02:12;29.10;42.40
74294;DHT22;62688;59.904;10.738;2022-08-19T13:04:37;29.10;41.40
74294;DHT22;62688;59.904;10.738;2022-08-19T13:07:07;29.20;41.70
74294;DHT22;62688;59.904;10.738;2022-08-19T13:09:34;29.20;41.60
74294;DHT22;62688;59.904;10.738;2022-08-19T13:11:59;29.20;41.90
74294;DHT22;62688;59.904;10.738;2022-08-19T13:14:28;29.20;41.90
74294;DHT22;62688;59.904;10.738;2022-08-19T13:16:56;29.20;41.90
74294;DHT22;62688;59.904;10.738;2022-08-19T13:19:22;29.20;42.00
74294;DHT22;62688;59.904;10.738;2022-08-19T13:21:50;29.20;41.90
74294;DHT22;62688;59.904;10.738;2022-08-19T13:24:16;29.30;41.80
74294;DHT22;62688;59.904;10.738;2022-08-19T13:26:42;29.30;42.10
74294;DHT22;62688;59.904;10.738;2022-08-19T13:29:08;29.30;41.80
74294;DHT22;62688;59.904;10.738;2022-08-19T13:31:52;29.30;41.50
74294;DHT22;62688;59.904;10.738;2022-08-19T13:34:36;29.30;42.20
74294;DHT22;62688;59.904;10.738;2022-08-19T13:37:03;29.30;42.60
74294;DHT22;62688;59.904;10.738;2022-08-19T13:39:33;29.30;42.70
74294;DHT22;62688;59.904;10.738;2022-08-19T13:41:59;29.40;42.30
74294;DHT22;62688;59.904;10.738;2022-08-19T13:44:26;29.40;42.80
74294;DHT22;62688;59.904;10.738;2022-08-19T13:46:52;29.60;43.20
74294;DHT22;62688;59.904;10.738;2022-08-19T13:49:18;29.90;42.90
74294;DHT22;62688;59.904;10.738;2022-08-19T13:51:46;30.20;44.00
74294;DHT22;62688;59.904;10.738;2022-08-19T13:54:12;30.60;42.60
74294;DHT22;62688;59.904;10.738;2022-08-19T13:56:43;30.90;41.80
74294;DHT22;62688;59.904;10.738;2022-08-19T13:59:09;31.20;40.10
74294;DHT22;62688;59.904;10.738;2022-08-19T14:01:35;31.40;40.60
74294;DHT22;62688;59.904;10.738;2022-08-19T14:04:02;31.60;40.00
74294;DHT22;62688;59.904;10.738;2022-08-19T14:06:27;31.80;39.50
74294;DHT22;62688;59.904;10.738;2022-08-19T14:08:53;32.00;38.50
74294;DHT22;62688;59.904;10.738;2022-08-19T14:11:19;32.20;38.30
74294;DHT22;62688;59.904;10.738;2022-08-19T14:13:44;32.60;38.40
74294;DHT22;62688;59.904;10.738;2022-08-19T14:16:12;32.80;37.80
74294;DHT22;62688;59.904;10.738;2022-08-19T14:18:38;33.00;37.30
74294;DHT22;62688;59.904;10.738;2022-08-19T14:21:05;33.20;37.30
74294;DHT22;62688;59.904;10.738;2022-08-19T14:23:32;33.40;37.70
74294;DHT22;62688;59.904;10.738;2022-08-19T14:26:06;33.50;36.20
74294;DHT22;62688;59.904;10.738;2022-08-19T14:28:32;33.60;34.70
74294;DHT22;62688;59.904;10.738;2022-08-19T14:30:58;33.70;35.40
74294;DHT22;62688;59.904;10.738;2022-08-19T14:33:24;33.90;35.80
74294;DHT22;62688;59.904;10.738;2022-08-19T14:35:49;34.20;35.90
74294;DHT22;62688;59.904;10.738;2022-08-19T14:38:17;34.50;35.80
74294;DHT22;62688;59.904;10.738;2022-08-19T14:40:44;34.80;35.10
74294;DHT22;62688;59.904;10.738;2022-08-19T14:43:10;35.20;35.10
74294;DHT22;62688;59.904;10.738;2022-08-19T14:45:37;35.60;35.50
74294;DHT22;62688;59.904;10.738;2022-08-19T14:48:04;36.10;34.30
74294;DHT22;62688;59.904;10.738;2022-08-19T14:50:30;36.70;33.70
74294;DHT22;62688;59.904;10.738;2022-08-19T14:53:01;37.20;33.00
74294;DHT22;62688;59.904;10.738;2022-08-19T14:55:28;37.80;31.60
74294;DHT22;62688;59.904;10.738;2022-08-19T14:57:54;38.40;32.10
74294;DHT22;62688;59.904;10.738;2022-08-19T15:00:20;38.80;30.80
74294;DHT22;62688;59.904;10.738;2022-08-19T15:02:46;39.20;29.90
74294;DHT22;62688;59.904;10.738;2022-08-19T15:05:12;39.50;29.30
74294;DHT22;62688;59.904;10.738;2022-08-19T15:07:39;39.60;28.70
74294;DHT22;62688;59.904;10.738;2022-08-19T15:10:06;39.70;28.60
74294;DHT22;62688;59.904;10.738;2022-08-19T15:12:34;40.00;27.80
74294;DHT22;62688;59.904;10.738;2022-08-19T15:15:00;40.20;28.10
74294;DHT22;62688;59.904;10.738;2022-08-19T15:17:26;40.60;27.80
74294;DHT22;62688;59.904;10.738;2022-08-19T15:19:52;40.80;27.40
74294;DHT22;62688;59.904;10.738;2022-08-19T15:22:18;40.90;26.90
74294;DHT22;62688;59.904;10.738;2022-08-19T15:24:43;40.80;26.10